Time;durP1;ratioP1;P1;durP2;ratioP2;P2;SDS_P1;SDS_P2;PMS_P1;PMS_P2;Temp;Humidity;BMP_temperature;BMP_pressure;BME280_temperature;BME280_humidity;BME280_pressure;Samples;Min_cycle;Max_cycle;Signal;HPM_P1;HPM_P2
2022/01/01 11:26:31;;;;;;;;;;;20.80;53.60;;;;;;3049604;29;19993;-88
2022/01/01 11:28:03;;;;;;;;;;;20.90;53.60;;;;;;3049472;29;20348;-88
2022/01/01 11:29:35;;;;;;;;;;;20.90;53.50;;;;;;3041281;29;20436;-88
2022/01/01 11:31:08;;;;;;;;;;;20.90;53.50;;;;;;3047250;29;19927;-88
2022/01/01 11:32:40;;;;;;;;;;;20.90;53.50;;;;;;3048942;29;19927;-88
2022/01/01 11:34:12;;;;;;;;;;;20.90;53.40;;;;;;3044157;29;19935;-88
2022/01/01 11:35:44;;;;;;;;;;;20.90;53.40;;;;;;3050906;29;19927;-88
2022/01/01 11:37:15;;;;;;;;;;;20.90;53.30;;;;;;3042856;29;19931;-88
2022/01/01 11:38:47;;;;;;;;;;;20.90;53.30;;;;;;3050639;29;19923;-88
2022/01/01 11:40:19;;;;;;;;;;;20.90;53.20;;;;;;3051622;28;19952;-88
2022/01/01 11:41:51;;;;;;;;;;;20.90;53.20;;;;;;3044403;29;19928;-89
2022/01/01 11:43:36;;;;;;;;;;;20.90;53.20;;;;;;3050314;29;19975;-88
2022/01/01 11:45:08;;;;;;;;;;;20.90;53.20;;;;;;3047791;28;19927;-89
2022/01/01 11:46:40;;;;;;;;;;;20.90;53.30;;;;;;3049767;29;19931;-89
2022/01/01 11:48:31;;;;;;;;;;;20.90;53.20;;;;;;3050323;29;19927;-90
2022/01/01 11:50:05;;;;;;;;;;;20.90;53.20;;;;;;3044676;28;19983;-88
2022/01/01 11:53:28;;;;;;;;;;;20.90;53.20;;;;;;3038264;29;20339;-88
2022/01/01 11:55:00;;;;;;;;;;;20.90;53.10;;;;;;3043637;28;20349;-89
2022/01/01 11:56:47;;;;;;;;;;;20.90;53.10;;;;;;3051085;29;19928;-86
2022/01/01 11:58:22;;;;;;;;;;;20.90;53.00;;;;;;3050593;29;19946;-88
2022/01/01 12:00:00;;;;;;;;;;;21.00;52.90;;;;;;3039047;29;19975;-89
2022/01/01 12:01:32;;;;;;;;;;;21.00;52.90;;;;;;3046985;29;20002;-89
2022/01/01 12:03:13;;;;;;;;;;;20.90;53.00;;;;;;3050689;29;19927;-88
2022/01/01 12:04:45;;;;;;;;;;;20.90;53.00;;;;;;3050688;29;19927;-88
2022/01/01 12:06:16;;;;;;;;;;;20.90;53.00;;;;;;3039371;29;20440;-89
2022/01/01 12:07:49;;;;;;;;;;;20.90;52.90;;;;;;3035457;29;19931;-88
2022/01/01 12:09:21;;;;;;;;;;;20.90;52.80;;;;;;3028425;29;19927;-90
2022/01/01 12:10:53;;;;;;;;;;;21.00;52.80;;;;;;3036007;29;20304;-89
2022/01/01 12:12:35;;;;;;;;;;;21.00;52.70;;;;;;3047567;29;20336;-89
2022/01/01 12:14:09;;;;;;;;;;;21.00;52.90;;;;;;3046334;29;19927;-88
2022/01/01 12:15:45;;;;;;;;;;;20.90;52.90;;;;;;3042213;28;19938;-89
2022/01/01 12:17:16;;;;;;;;;;;20.90;52.90;;;;;;3041272;29;19927;-89
2022/01/01 12:18:48;;;;;;;;;;;20.90;53.00;;;;;;3048867;29;19934;-89
2022/01/01 12:20:19;;;;;;;;;;;20.90;53.10;;;;;;3049797;28;19978;-89
2022/01/01 12:22:00;;;;;;;;;;;20.90;53.10;;;;;;3050636;29;20026;-89
2022/01/01 12:23:33;;;;;;;;;;;20.90;53.10;;;;;;3050257;29;19974;-89
2022/01/01 12:25:05;;;;;;;;;;;20.90;53.10;;;;;;3049999;29;20376;-89
2022/01/01 12:26:37;;;;;;;;;;;20.90;53.20;;;;;;3047911;29;19977;-89
2022/01/01 12:28:09;;;;;;;;;;;20.90;53.20;;;;;;3050671;29;19927;-89
2022/01/01 12:29:42;;;;;;;;;;;20.90;53.20;;;;;;3050898;29;19979;-88
2022/01/01 12:31:14;;;;;;;;;;;20.90;53.20;;;;;;3048501;29;19927;-88
2022/01/01 12:32:45;;;;;;;;;;;20.90;53.10;;;;;;3050698;29;19927;-88
2022/01/01 12:34:26;;;;;;;;;;;20.90;53.20;;;;;;3058569;29;19933;-88
2022/01/01 12:35:58;;;;;;;;;;;20.90;53.20;;;;;;3051564;28;19935;-89
2022/01/01 12:37:35;;;;;;;;;;;20.90;53.30;;;;;;3047392;29;19975;-88
2022/01/01 12:39:07;;;;;;;;;;;20.90;53.30;;;;;;3039136;29;19927;-89
2022/01/01 12:40:57;;;;;;;;;;;20.90;53.20;;;;;;3042073;29;19935;-89
2022/01/01 12:42:30;;;;;;;;;;;20.90;53.30;;;;;;3050005;29;19927;-89
2022/01/01 12:44:02;;;;;;;;;;;20.90;53.20;;;;;;3049148;29;19942;-88
2022/01/01 12:45:35;;;;;;;;;;;20.90;53.10;;;;;;3048795;28;20022;-89
2022/01/01 12:47:06;;;;;;;;;;;20.90;53.60;;;;;;3040140;29;20288;-89
2022/01/01 12:48:38;;;;;;;;;;;20.90;52.80;;;;;;3047099;29;19927;-89
2022/01/01 12:50:10;;;;;;;;;;;21.00;52.80;;;;;;3046764;29;19931;-89
2022/01/01 12:51:41;;;;;;;;;;;21.00;52.70;;;;;;3049993;29;19927;-90
2022/01/01 12:53:13;;;;;;;;;;;21.00;52.70;;;;;;3048785;29;19941;-91
2022/01/01 12:54:45;;;;;;;;;;;21.00;52.70;;;;;;3049584;29;19927;-89
2022/01/01 12:56:16;;;;;;;;;;;21.00;52.60;;;;;;3049762;29;20308;-89
2022/01/01 12:57:48;;;;;;;;;;;21.00;52.60;;;;;;3049933;29;19934;-89
2022/01/01 12:59:21;;;;;;;;;;;21.00;52.60;;;;;;3049736;29;19927;-89
2022/01/01 13:00:54;;;;;;;;;;;21.00;52.60;;;;;;3038465;28;19935;-89
2022/01/01 13:02:25;;;;;;;;;;;21.00;52.60;;;;;;3048830;29;20637;-89
2022/01/01 13:03:59;;;;;;;;;;;21.00;52.60;;;;;;3049449;29;19927;-91
2022/01/01 13:05:31;;;;;;;;;;;21.00;52.60;;;;;;3048532;28;19982;-89
2022/01/01 13:07:03;;;;;;;;;;;21.00;52.70;;;;;;3050338;29;19931;-89
2022/01/01 13:08:39;;;;;;;;;;;21.00;53.30;;;;;;3049542;29;19927;-89
2022/01/01 13:10:12;;;;;;;;;;;21.00;53.30;;;;;;3049711;28;19934;-89
2022/01/01 13:11:44;;;;;;;;;;;21.00;52.70;;;;;;3050070;29;19927;-89
2022/01/01 13:13:17;;;;;;;;;;;21.00;52.70;;;;;;3048133;29;20412;-89
2022/01/01 13:14:49;;;;;;;;;;;21.00;52.70;;;;;;3049567;28;20308;-90
2022/01/01 13:16:22;;;;;;;;;;;21.00;52.70;;;;;;3046801;29;19931;-92
2022/01/01 13:17:53;;;;;;;;;;;21.00;52.70;;;;;;3041430;29;19978;-88
2022/01/01 13:19:25;;;;;;;;;;;21.00;52.70;;;;;;3049668;29;19931;-90
2022/01/01 13:20:56;;;;;;;;;;;21.00;52.70;;;;;;3043689;28;19935;-91
2022/01/01 13:22:29;;;;;;;;;;;21.00;52.70;;;;;;3038119;29;19927;-90
2022/01/01 13:24:00;;;;;;;;;;;21.00;52.80;;;;;;3048730;29;19931;-92
2022/01/01 13:25:32;;;;;;;;;;;21.00;52.70;;;;;;3049149;28;19927;-91
2022/01/01 13:27:04;;;;;;;;;;;21.10;52.80;;;;;;3044709;29;19990;-90
2022/01/01 13:28:36;;;;;;;;;;;21.10;52.70;;;;;;3049638;29;19927;-91
2022/01/01 13:30:09;;;;;;;;;;;21.10;52.80;;;;;;3047600;28;19935;-90
2022/01/01 13:33:42;;;;;;;;;;;21.10;52.80;;;;;;3046559;29;20004;-89
2022/01/01 13:35:16;;;;;;;;;;;21.00;52.80;;;;;;3049409;28;20296;-90
2022/01/01 13:36:48;;;;;;;;;;;21.00;52.70;;;;;;3050163;29;19927;-89
2022/01/01 13:38:20;;;;;;;;;;;21.10;52.90;;;;;;3048888;29;19975;-89
2022/01/01 13:39:53;;;;;;;;;;;21.00;53.20;;;;;;3048959;28;19927;-89
2022/01/01 13:41:32;;;;;;;;;;;21.00;53.60;;;;;;3049985;29;19982;-87
2022/01/01 13:43:10;;;;;;;;;;;21.10;53.90;;;;;;3048993;29;20464;-90
2022/01/01 13:44:43;;;;;;;;;;;21.00;53.90;;;;;;3049517;29;20006;-91
2022/01/01 13:46:15;;;;;;;;;;;21.00;53.80;;;;;;3048167;28;20392;-90
2022/01/01 13:47:47;;;;;;;;;;;21.00;54.00;;;;;;3047571;29;20368;-90
2022/01/01 13:49:20;;;;;;;;;;;21.00;54.10;;;;;;3049671;29;19927;-89
2022/01/01 13:50:52;;;;;;;;;;;21.10;54.40;;;;;;3048566;29;20282;-89
2022/01/01 13:52:24;;;;;;;;;;;21.00;54.40;;;;;;3049543;29;20306;-89
2022/01/01 13:54:05;;;;;;;;;;;21.10;54.60;;;;;;3049777;29;19931;-88
2022/01/01 13:55:37;;;;;;;;;;;21.00;54.40;;;;;;3049414;29;19934;-90
2022/01/01 13:57:09;;;;;;;;;;;21.10;54.80;;;;;;3045344;29;20329;-88
2022/01/01 13:58:41;;;;;;;;;;;21.10;54.70;;;;;;3047123;29;19949;-88
2022/01/01 14:00:15;;;;;;;;;;;21.10;54.70;;;;;;3048456;29;19982;-89
2022/01/01 14:01:46;;;;;;;;;;;21.10;54.70;;;;;;3049957;29;19927;-88
2022/01/01 14:03:18;;;;;;;;;;;21.10;54.80;;;;;;3048139;29;19935;-90
2022/01/01 14:04:53;;;;;;;;;;;21.10;54.80;;;;;;3048717;29;19935;-89
2022/01/01 14:06:26;;;;;;;;;;;21.10;54.90;;;;;;3050192;29;20512;-88
2022/01/01 14:08:10;;;;;;;;;;;21.10;55.00;;;;;;3048794;29;19937;-90
2022/01/01 14:09:57;;;;;;;;;;;21.10;55.20;;;;;;3048849;29;20297;-89
2022/01/01 14:11:30;;;;;;;;;;;21.10;55.40;;;;;;3047987;29;19962;-88
2022/01/01 14:13:01;;;;;;;;;;;21.10;55.70;;;;;;3047582;29;20214;-89
2022/01/01 14:14:33;;;;;;;;;;;21.10;55.60;;;;;;3049761;29;20435;-89
2022/01/01 14:16:14;;;;;;;;;;;21.10;55.80;;;;;;3047935;28;20340;-89
2022/01/01 14:18:06;;;;;;;;;;;21.10;55.90;;;;;;3047357;29;19927;-89
2022/01/01 14:19:38;;;;;;;;;;;21.10;56.10;;;;;;3041393;29;19954;-89
2022/01/01 14:21:11;;;;;;;;;;;21.10;56.10;;;;;;3049192;28;19927;-89
2022/01/01 14:22:43;;;;;;;;;;;21.10;56.20;;;;;;3049450;29;19938;-88
2022/01/01 14:24:14;;;;;;;;;;;21.10;56.20;;;;;;3048931;29;19927;-91
2022/01/01 14:25:46;;;;;;;;;;;21.10;56.30;;;;;;3050790;28;19927;-90
2022/01/01 14:27:18;;;;;;;;;;;21.10;56.30;;;;;;3050618;29;19983;-88
2022/01/01 14:28:49;;;;;;;;;;;21.10;56.30;;;;;;3049167;29;19933;-88
2022/01/01 14:30:21;;;;;;;;;;;21.20;56.40;;;;;;3047909;28;19927;-88
2022/01/01 14:31:53;;;;;;;;;;;21.10;56.40;;;;;;3049791;29;19970;-88
2022/01/01 14:33:25;;;;;;;;;;;21.20;56.60;;;;;;3050835;29;19934;-88
2022/01/01 14:34:56;;;;;;;;;;;21.20;56.60;;;;;;3055641;29;19927;-91
2022/01/01 14:36:29;;;;;;;;;;;21.20;56.70;;;;;;3052150;29;19927;-92
2022/01/01 14:38:01;;;;;;;;;;;21.10;57.10;;;;;;3054888;29;19934;-95
2022/01/01 14:39:33;;;;;;;;;;;21.20;56.80;;;;;;3052009;29;19937;-93
2022/01/01 14:41:05;;;;;;;;;;;21.20;57.30;;;;;;3050008;29;19930;-91
2022/01/01 14:42:40;;;;;;;;;;;21.10;57.60;;;;;;3053239;29;19927;-92
2022/01/01 14:44:11;;;;;;;;;;;21.20;57.50;;;;;;3051623;29;19934;-92
2022/01/01 14:45:43;;;;;;;;;;;21.20;57.00;;;;;;3050897;28;19981;-92
2022/01/01 14:47:24;;;;;;;;;;;21.20;56.70;;;;;;3051193;29;19974;-91
2022/01/01 14:48:59;;;;;;;;;;;21.20;56.50;;;;;;3040875;29;19956;-92
2022/01/01 14:50:31;;;;;;;;;;;21.20;56.30;;;;;;3039961;29;20333;-93
2022/01/01 14:52:06;;;;;;;;;;;21.20;56.10;;;;;;3051985;29;19927;-93
2022/01/01 14:53:38;;;;;;;;;;;21.20;56.10;;;;;;3051832;29;19965;-92
2022/01/01 14:55:10;;;;;;;;;;;21.20;55.90;;;;;;3051650;28;20108;-93
2022/01/01 14:56:42;;;;;;;;;;;21.20;55.80;;;;;;3051801;29;19974;-92
2022/01/01 14:58:16;;;;;;;;;;;21.20;55.70;;;;;;3051995;29;19973;-93
2022/01/01 14:59:48;;;;;;;;;;;21.10;55.80;;;;;;3043884;28;19983;-92
2022/01/01 15:01:19;;;;;;;;;;;21.20;55.80;;;;;;3044628;29;19932;-93
2022/01/01 15:02:51;;;;;;;;;;;21.20;55.50;;;;;;3045100;29;19927;-93
2022/01/01 15:04:23;;;;;;;;;;;21.10;55.60;;;;;;3052042;29;19945;-92
2022/01/01 15:05:54;;;;;;;;;;;21.20;55.60;;;;;;3051817;28;19931;-92
2022/01/01 15:07:27;;;;;;;;;;;21.20;55.50;;;;;;3052095;29;20676;-92
2022/01/01 15:09:00;;;;;;;;;;;21.10;55.40;;;;;;3051959;29;20292;-93
2022/01/01 15:10:31;;;;;;;;;;;21.10;55.30;;;;;;3052372;28;19927;-92
2022/01/01 15:12:03;;;;;;;;;;;21.10;55.40;;;;;;3052093;29;19934;-92
2022/01/01 15:13:35;;;;;;;;;;;21.10;55.40;;;;;;3052129;29;19927;-93
2022/01/01 15:15:07;;;;;;;;;;;21.20;55.70;;;;;;3050912;28;19962;-92
2022/01/01 15:16:38;;;;;;;;;;;21.20;55.40;;;;;;3052088;29;19931;-93
2022/01/01 15:18:10;;;;;;;;;;;21.20;55.30;;;;;;3046563;29;19927;-93
2022/01/01 15:19:45;;;;;;;;;;;21.10;55.20;;;;;;3040230;29;20381;-92
2022/01/01 15:21:19;;;;;;;;;;;21.20;55.20;;;;;;3039777;29;19978;-92
2022/01/01 15:22:56;;;;;;;;;;;21.20;55.10;;;;;;3040391;29;19927;-93
2022/01/01 15:24:28;;;;;;;;;;;21.10;54.90;;;;;;3040117;29;19931;-93
2022/01/01 15:26:00;;;;;;;;;;;21.10;54.90;;;;;;3039312;29;19928;-93
2022/01/01 15:27:32;;;;;;;;;;;21.10;55.00;;;;;;3040452;29;19935;-93
2022/01/01 15:29:14;;;;;;;;;;;21.10;54.80;;;;;;3039977;29;19931;-91
2022/01/01 15:30:51;;;;;;;;;;;21.10;54.90;;;;;;3038711;29;19929;-91
2022/01/01 15:34:21;;;;;;;;;;;21.10;54.80;;;;;;3051578;29;19923;-92
2022/01/01 15:36:00;;;;;;;;;;;21.10;54.70;;;;;;3051060;28;20422;-93
2022/01/01 15:37:32;;;;;;;;;;;21.10;54.70;;;;;;3051562;29;20317;-92
2022/01/01 15:39:10;;;;;;;;;;;21.20;54.80;;;;;;3051442;29;19927;-91
2022/01/01 15:40:55;;;;;;;;;;;21.10;54.50;;;;;;3050660;28;20395;-93
2022/01/01 15:42:27;;;;;;;;;;;21.10;54.70;;;;;;3044194;29;19927;-91
2022/01/01 15:43:58;;;;;;;;;;;21.20;54.70;;;;;;3039649;29;19927;-92
2022/01/01 15:45:30;;;;;;;;;;;21.10;54.70;;;;;;3038119;28;19976;-92
2022/01/01 15:47:02;;;;;;;;;;;21.10;54.50;;;;;;3048461;29;19978;-91
2022/01/01 15:48:33;;;;;;;;;;;21.10;54.50;;;;;;3051287;29;19974;-91
2022/01/01 15:50:05;;;;;;;;;;;21.10;54.40;;;;;;3051094;28;19979;-90
2022/01/01 15:51:37;;;;;;;;;;;21.20;54.40;;;;;;3051081;29;19927;-90
2022/01/01 15:53:10;;;;;;;;;;;21.10;54.30;;;;;;3051254;29;19927;-91
2022/01/01 15:54:43;;;;;;;;;;;21.10;54.50;;;;;;3051603;29;20314;-90
2022/01/01 15:56:15;;;;;;;;;;;21.10;54.30;;;;;;3050614;28;20360;-91
2022/01/01 15:57:51;;;;;;;;;;;21.10;54.20;;;;;;3051458;29;19927;-91
2022/01/01 15:59:22;;;;;;;;;;;21.10;54.20;;;;;;3051281;29;20285;-90
2022/01/01 16:00:54;;;;;;;;;;;21.20;54.20;;;;;;3050070;28;19927;-91
2022/01/01 16:02:44;;;;;;;;;;;21.20;54.20;;;;;;3051040;29;19927;-90
2022/01/01 16:04:17;;;;;;;;;;;21.20;54.20;;;;;;3048627;29;19959;-91
2022/01/01 16:05:50;;;;;;;;;;;21.20;54.10;;;;;;3050899;28;20353;-91
2022/01/01 16:07:26;;;;;;;;;;;21.20;54.00;;;;;;3051171;29;20046;-92
2022/01/01 16:08:58;;;;;;;;;;;21.20;54.00;;;;;;3050813;29;19998;-91
2022/01/01 16:10:31;;;;;;;;;;;21.20;54.10;;;;;;3050746;28;20369;-91
2022/01/01 16:12:03;;;;;;;;;;;21.20;54.00;;;;;;3050666;29;19927;-90
2022/01/01 16:13:35;;;;;;;;;;;21.20;54.00;;;;;;3050790;29;19927;-87
2022/01/01 16:15:07;;;;;;;;;;;21.10;53.90;;;;;;3049928;28;19935;-90
2022/01/01 16:16:40;;;;;;;;;;;21.20;53.90;;;;;;3044937;29;20337;-91
2022/01/01 16:18:12;;;;;;;;;;;21.20;53.90;;;;;;3045605;29;19934;-90
2022/01/01 16:19:44;;;;;;;;;;;21.10;53.80;;;;;;3039537;29;19978;-91
2022/01/01 16:21:16;;;;;;;;;;;21.20;53.90;;;;;;3050801;28;19991;-91
2022/01/01 16:22:48;;;;;;;;;;;21.20;53.80;;;;;;3050845;29;19991;-91
2022/01/01 16:24:19;;;;;;;;;;;21.10;53.80;;;;;;3050877;29;19927;-90
2022/01/01 16:25:53;;;;;;;;;;;21.10;53.90;;;;;;3050284;28;19927;-90
2022/01/01 16:27:25;;;;;;;;;;;21.10;54.00;;;;;;3050239;29;19931;-91
2022/01/01 16:28:56;;;;;;;;;;;21.20;54.10;;;;;;3051039;29;19934;-91
2022/01/01 16:30:35;;;;;;;;;;;21.10;54.00;;;;;;3050082;29;19931;-91
2022/01/01 16:32:08;;;;;;;;;;;21.10;53.80;;;;;;3050824;29;19927;-91
2022/01/01 16:33:40;;;;;;;;;;;21.20;53.80;;;;;;3054971;29;19930;-91
2022/01/01 16:35:12;;;;;;;;;;;21.20;53.80;;;;;;3060104;28;19926;-91
2022/01/01 16:36:44;;;;;;;;;;;21.20;53.70;;;;;;3050998;29;19977;-91
2022/01/01 16:38:15;;;;;;;;;;;21.20;53.60;;;;;;3050735;29;19975;-92
2022/01/01 16:39:47;;;;;;;;;;;21.20;53.70;;;;;;3050150;29;19978;-91
2022/01/01 16:41:24;;;;;;;;;;;21.20;53.60;;;;;;3050306;29;19931;-92
2022/01/01 16:42:56;;;;;;;;;;;21.20;53.70;;;;;;3047462;29;20403;-91
2022/01/01 16:44:30;;;;;;;;;;;21.20;53.60;;;;;;3048233;29;19947;-91
2022/01/01 16:46:02;;;;;;;;;;;21.20;53.60;;;;;;3050996;29;19927;-94
2022/01/01 16:47:35;;;;;;;;;;;21.20;53.50;;;;;;3052786;29;19933;-91
2022/01/01 16:49:08;;;;;;;;;;;21.20;53.50;;;;;;3039294;29;19927;-91
2022/01/01 16:50:40;;;;;;;;;;;21.20;53.50;;;;;;3038620;29;19938;-91
2022/01/01 16:52:13;;;;;;;;;;;21.20;53.50;;;;;;3038888;29;19927;-93
2022/01/01 16:53:44;;;;;;;;;;;21.20;53.50;;;;;;3039897;29;19934;-91
2022/01/01 16:55:19;;;;;;;;;;;21.20;53.50;;;;;;3048636;29;19927;-93
2022/01/01 16:56:53;;;;;;;;;;;21.20;53.50;;;;;;3051234;29;19927;-91
2022/01/01 16:58:26;;;;;;;;;;;21.20;53.40;;;;;;3050013;29;19928;-90
2022/01/01 16:59:58;;;;;;;;;;;21.20;53.50;;;;;;3050663;28;20372;-91
2022/01/01 17:01:30;;;;;;;;;;;21.20;53.40;;;;;;3049781;29;19927;-90
2022/01/01 17:03:02;;;;;;;;;;;21.20;53.50;;;;;;3046151;29;19983;-89
2022/01/01 17:04:34;;;;;;;;;;;21.10;54.00;;;;;;3048857;29;20377;-90
2022/01/01 17:06:06;;;;;;;;;;;21.10;55.00;;;;;;3049618;29;19987;-90
2022/01/01 17:07:38;;;;;;;;;;;21.20;56.30;;;;;;3050337;29;20029;-90
2022/01/01 17:09:10;;;;;;;;;;;21.20;57.10;;;;;;3050340;29;19959;-90
2022/01/01 17:10:42;;;;;;;;;;;21.10;57.80;;;;;;3038355;29;20485;-90
2022/01/01 17:12:18;;;;;;;;;;;21.20;58.00;;;;;;3047551;29;19983;-91
2022/01/01 17:13:49;;;;;;;;;;;21.20;57.90;;;;;;3050189;29;19991;-90
2022/01/01 17:15:22;;;;;;;;;;;21.20;57.80;;;;;;3047379;29;19927;-90
2022/01/01 17:16:59;;;;;;;;;;;21.20;57.80;;;;;;3043516;29;21820;-90
2022/01/01 17:18:34;;;;;;;;;;;21.20;57.80;;;;;;3050170;29;19954;-90
2022/01/01 17:20:07;;;;;;;;;;;21.20;57.70;;;;;;3038239;29;21511;-90
2022/01/01 17:21:39;;;;;;;;;;;21.20;57.80;;;;;;3039246;29;19959;-90
2022/01/01 17:23:15;;;;;;;;;;;21.20;57.80;;;;;;3049274;29;19927;-90
2022/01/01 17:24:48;;;;;;;;;;;21.20;57.80;;;;;;3049728;29;19973;-90
2022/01/01 17:26:21;;;;;;;;;;;21.20;57.70;;;;;;3056086;29;19934;-90
2022/01/01 17:27:58;;;;;;;;;;;21.20;57.60;;;;;;3061807;29;19958;-91
2022/01/01 17:29:30;;;;;;;;;;;21.20;57.50;;;;;;3039855;29;19928;-90
2022/01/01 17:31:02;;;;;;;;;;;21.20;57.60;;;;;;3060715;28;19934;-90
2022/01/01 17:32:34;;;;;;;;;;;21.20;57.50;;;;;;3038340;29;19950;-91
2022/01/01 17:34:26;;;;;;;;;;;21.20;57.50;;;;;;3052872;29;19938;-91
2022/01/01 18:52:05;;;;;;;;;;;21.20;56.60;;;;;;3039962;29;19935;-90
2022/01/01 18:53:37;;;;;;;;;;;21.20;56.60;;;;;;3039354;29;19932;-92
2022/01/01 18:55:10;;;;;;;;;;;21.20;56.50;;;;;;3040814;29;20400;-90
2022/01/01 18:56:43;;;;;;;;;;;21.20;56.50;;;;;;3029595;29;19979;-90
2022/01/01 18:58:14;;;;;;;;;;;21.20;56.40;;;;;;3040439;29;20296;-90
2022/01/01 18:59:47;;;;;;;;;;;21.20;56.40;;;;;;3041147;29;19972;-90
2022/01/01 19:01:20;;;;;;;;;;;21.20;56.40;;;;;;3048216;29;19931;-89
2022/01/01 19:02:52;;;;;;;;;;;21.20;56.40;;;;;;3052867;29;19931;-91
2022/01/01 19:04:24;;;;;;;;;;;21.20;56.40;;;;;;3051580;29;19970;-91
2022/01/01 19:05:58;;;;;;;;;;;21.20;56.30;;;;;;3051687;29;19934;-89
2022/01/01 19:07:31;;;;;;;;;;;21.20;56.40;;;;;;3052990;29;19927;-90
2022/01/01 19:09:03;;;;;;;;;;;21.20;56.30;;;;;;3051376;29;20308;-90
2022/01/01 19:10:37;;;;;;;;;;;21.20;56.10;;;;;;3052853;29;19996;-90
2022/01/01 19:12:12;;;;;;;;;;;21.20;56.10;;;;;;3051729;29;19927;-89
2022/01/01 19:13:44;;;;;;;;;;;21.20;56.00;;;;;;3050760;29;19927;-89
2022/01/01 19:15:16;;;;;;;;;;;21.20;56.00;;;;;;3050207;29;19931;-89
2022/01/01 19:16:47;;;;;;;;;;;21.20;56.10;;;;;;3051432;29;19927;-89
2022/01/01 19:18:19;;;;;;;;;;;21.20;55.90;;;;;;3053009;29;20373;-90
2022/01/01 19:19:51;;;;;;;;;;;21.20;56.00;;;;;;3050875;28;20341;-90
2022/01/01 19:21:23;;;;;;;;;;;21.20;55.80;;;;;;3039911;29;19963;-89
2022/01/01 19:22:56;;;;;;;;;;;21.20;55.90;;;;;;3040809;29;20341;-89
2022/01/01 19:24:27;;;;;;;;;;;21.20;55.80;;;;;;3039494;29;19931;-89
2022/01/01 19:25:59;;;;;;;;;;;21.20;55.80;;;;;;3043944;29;19975;-90
2022/01/01 19:27:31;;;;;;;;;;;21.20;55.80;;;;;;3051632;29;20577;-89
2022/01/01 19:29:03;;;;;;;;;;;21.20;55.70;;;;;;3052289;29;19963;-90
2022/01/01 19:30:35;;;;;;;;;;;21.20;55.70;;;;;;3047135;28;19991;-89
2022/01/01 19:32:12;;;;;;;;;;;21.20;55.60;;;;;;3039768;29;19927;-91
2022/01/01 19:33:44;;;;;;;;;;;21.20;55.80;;;;;;3041207;29;19927;-93
2022/01/01 19:35:16;;;;;;;;;;;21.20;56.30;;;;;;3040866;28;19931;-91
2022/01/01 19:36:48;;;;;;;;;;;21.20;56.50;;;;;;3052350;29;19933;-90
2022/01/01 19:38:28;;;;;;;;;;;21.30;56.10;;;;;;3051909;29;19927;-91
2022/01/01 19:40:02;;;;;;;;;;;21.20;56.50;;;;;;3042980;28;19927;-89
2022/01/01 19:41:35;;;;;;;;;;;21.20;57.40;;;;;;3047059;29;19931;-89
2022/01/01 19:43:12;;;;;;;;;;;21.20;57.00;;;;;;3040186;29;19936;-90
2022/01/01 19:44:50;;;;;;;;;;;21.20;57.20;;;;;;3051158;29;19931;-90
2022/01/01 19:46:24;;;;;;;;;;;21.30;57.80;;;;;;3050651;28;19934;-90
2022/01/01 19:48:00;;;;;;;;;;;21.20;58.20;;;;;;3050579;29;19971;-90
2022/01/01 19:49:32;;;;;;;;;;;21.30;59.00;;;;;;3051854;29;19982;-90
2022/01/01 19:51:08;;;;;;;;;;;21.20;59.00;;;;;;3051547;28;19929;-90
2022/01/01 19:52:40;;;;;;;;;;;21.20;59.20;;;;;;3051448;29;19927;-90
2022/01/01 19:54:14;;;;;;;;;;;21.20;59.70;;;;;;3052821;29;19927;-91
2022/01/01 19:55:46;;;;;;;;;;;21.20;59.60;;;;;;3050596;28;20356;-91
2022/01/01 19:57:19;;;;;;;;;;;21.20;59.70;;;;;;3053083;29;19934;-90
2022/01/01 19:58:50;;;;;;;;;;;21.20;59.80;;;;;;3056020;29;19959;-92
2022/01/01 20:00:24;;;;;;;;;;;21.20;60.20;;;;;;3049732;28;19927;-92
2022/01/01 20:01:56;;;;;;;;;;;21.20;60.00;;;;;;3051863;29;20316;-91
2022/01/01 20:03:28;;;;;;;;;;;21.20;60.30;;;;;;3050574;29;19935;-91
2022/01/01 20:05:00;;;;;;;;;;;21.20;60.60;;;;;;3052177;28;19979;-91
2022/01/01 20:06:33;;;;;;;;;;;21.20;60.80;;;;;;3052411;29;19928;-91
2022/01/01 20:08:06;;;;;;;;;;;21.20;60.50;;;;;;3052889;29;19951;-92
2022/01/01 20:09:43;;;;;;;;;;;21.20;61.00;;;;;;3052692;29;20385;-92
2022/01/01 20:11:17;;;;;;;;;;;21.20;60.90;;;;;;3048968;29;19933;-91
2022/01/01 20:12:52;;;;;;;;;;;21.20;61.00;;;;;;3052059;29;19951;-91
2022/01/01 20:14:31;;;;;;;;;;;21.20;61.10;;;;;;3051887;29;19966;-90
2022/01/01 20:16:04;;;;;;;;;;;21.20;61.20;;;;;;3050181;28;20413;-92
2022/01/01 20:17:36;;;;;;;;;;;21.20;61.50;;;;;;3051760;29;20443;-92
2022/01/01 20:19:08;;;;;;;;;;;21.20;61.30;;;;;;3050909;29;19927;-91
2022/01/01 20:20:40;;;;;;;;;;;21.20;61.60;;;;;;3043490;28;19954;-91
2022/01/01 20:22:12;;;;;;;;;;;21.20;61.60;;;;;;3041163;29;19975;-91
2022/01/01 20:23:44;;;;;;;;;;;21.20;61.80;;;;;;3051054;29;19931;-91
2022/01/01 20:25:17;;;;;;;;;;;21.20;62.30;;;;;;3051106;28;19934;-90
2022/01/01 20:26:49;;;;;;;;;;;21.20;62.10;;;;;;3060869;29;20348;-92
2022/01/01 20:28:21;;;;;;;;;;;21.20;61.80;;;;;;3058265;29;19950;-92
2022/01/01 20:29:55;;;;;;;;;;;21.20;61.90;;;;;;3050990;28;19934;-91
2022/01/01 20:31:31;;;;;;;;;;;21.20;61.70;;;;;;3045376;29;20285;-92
2022/01/01 20:33:03;;;;;;;;;;;21.20;61.90;;;;;;3050515;29;19927;-91
2022/01/01 20:34:36;;;;;;;;;;;21.20;61.90;;;;;;3053700;29;19935;-91
2022/01/01 20:36:08;;;;;;;;;;;21.20;62.00;;;;;;3051713;28;19994;-90
2022/01/01 20:37:42;;;;;;;;;;;21.20;62.00;;;;;;3051712;29;20448;-90
2022/01/01 20:39:14;;;;;;;;;;;21.20;62.20;;;;;;3050760;29;20292;-90
2022/01/01 20:40:47;;;;;;;;;;;21.20;62.10;;;;;;3050169;28;19997;-90
2022/01/01 20:42:24;;;;;;;;;;;21.20;62.20;;;;;;3051801;29;19931;-91
2022/01/01 20:43:59;;;;;;;;;;;21.20;62.20;;;;;;3051407;29;19983;-90
2022/01/01 20:45:30;;;;;;;;;;;21.20;61.90;;;;;;3050071;28;19950;-89
2022/01/01 20:47:02;;;;;;;;;;;21.20;62.20;;;;;;3050528;29;20348;-90
2022/01/01 20:48:35;;;;;;;;;;;21.20;62.10;;;;;;3051391;29;19990;-90
2022/01/01 20:50:07;;;;;;;;;;;21.20;62.00;;;;;;3049685;28;21248;-90
2022/01/01 20:51:39;;;;;;;;;;;21.20;62.00;;;;;;3051440;29;19983;-91
2022/01/01 20:53:11;;;;;;;;;;;21.20;62.30;;;;;;3051480;29;20407;-91
2022/01/01 20:54:42;;;;;;;;;;;21.20;63.00;;;;;;3050789;29;20440;-91
2022/01/01 20:56:16;;;;;;;;;;;21.20;63.30;;;;;;3050463;28;19931;-90
2022/01/01 20:57:48;;;;;;;;;;;21.20;63.30;;;;;;3050606;29;19927;-89
2022/01/01 20:59:19;;;;;;;;;;;21.20;63.10;;;;;;3051592;29;19927;-90
2022/01/01 21:00:51;;;;;;;;;;;21.20;62.90;;;;;;3046533;28;19928;-90
2022/01/01 21:02:24;;;;;;;;;;;21.10;63.40;;;;;;3043141;29;19927;-91
2022/01/01 21:03:57;;;;;;;;;;;21.20;63.00;;;;;;3050898;29;19927;-90
2022/01/01 21:05:29;;;;;;;;;;;21.20;63.60;;;;;;3049953;28;19931;-90
2022/01/01 21:07:00;;;;;;;;;;;21.20;63.60;;;;;;3047579;29;19965;-90
2022/01/01 21:08:33;;;;;;;;;;;21.20;63.30;;;;;;3039989;29;20292;-90
2022/01/01 21:10:05;;;;;;;;;;;21.20;63.20;;;;;;3042490;28;19939;-91
2022/01/01 21:11:39;;;;;;;;;;;21.20;63.50;;;;;;3051233;29;19979;-90
2022/01/01 21:13:11;;;;;;;;;;;21.20;63.60;;;;;;3050381;29;20357;-92
2022/01/01 21:14:43;;;;;;;;;;;21.20;63.90;;;;;;3051442;29;20412;-91
2022/01/01 21:16:14;;;;;;;;;;;21.10;63.80;;;;;;3049837;28;19931;-90
2022/01/01 21:17:46;;;;;;;;;;;21.10;63.70;;;;;;3050642;29;20340;-90
2022/01/01 21:19:19;;;;;;;;;;;21.20;63.60;;;;;;3052882;29;19977;-90
2022/01/01 21:20:50;;;;;;;;;;;21.10;63.30;;;;;;3049529;28;19949;-90
2022/01/01 21:22:22;;;;;;;;;;;21.20;63.60;;;;;;3051452;29;20341;-90
2022/01/01 21:23:54;;;;;;;;;;;21.10;63.60;;;;;;3050277;29;19959;-90
2022/01/01 21:25:25;;;;;;;;;;;21.10;64.10;;;;;;3055361;28;20372;-91
2022/01/01 21:26:58;;;;;;;;;;;21.10;63.90;;;;;;3062859;29;19926;-91
2022/01/01 21:28:33;;;;;;;;;;;21.10;63.40;;;;;;3062111;29;19927;-90
2022/01/01 21:30:05;;;;;;;;;;;21.10;63.30;;;;;;3062461;28;19930;-89
2022/01/01 21:31:37;;;;;;;;;;;21.10;63.30;;;;;;3061515;29;19926;-90
2022/01/01 21:33:09;;;;;;;;;;;21.10;64.50;;;;;;3062013;29;19931;-90
2022/01/01 21:34:41;;;;;;;;;;;21.10;63.60;;;;;;3061706;29;19982;-90
2022/01/01 21:36:13;;;;;;;;;;;21.10;63.90;;;;;;3061250;28;20005;-90
2022/01/01 21:37:44;;;;;;;;;;;21.10;64.00;;;;;;3061890;29;19930;-91
2022/01/01 21:39:16;;;;;;;;;;;21.10;63.90;;;;;;3062097;29;19933;-90
2022/01/01 21:40:49;;;;;;;;;;;21.10;63.70;;;;;;3061655;28;20091;-90
2022/01/01 21:42:22;;;;;;;;;;;21.10;63.50;;;;;;3061935;29;20008;-91
2022/01/01 21:43:53;;;;;;;;;;;21.10;63.60;;;;;;3062790;29;19981;-91
2022/01/01 21:45:25;;;;;;;;;;;21.10;64.10;;;;;;3051678;28;20385;-90
2022/01/01 21:46:57;;;;;;;;;;;21.10;64.10;;;;;;3052719;29;19978;-90
2022/01/01 21:48:28;;;;;;;;;;;21.10;63.70;;;;;;3052652;29;19927;-90
2022/01/01 21:50:00;;;;;;;;;;;21.10;63.40;;;;;;3051976;28;20325;-89